sensor_id;sensor_type;location;lat;lon;timestamp;pressure;altitude;pressure_sealevel;temperature;humidity
29215;BME280;16252;49.816;7.964;2023-05-02T00:01:26;100136.34;;;14.45;51.37
29215;BME280;16252;49.816;7.964;2023-05-02T00:03:52;100166.72;;;14.57;51.31
29215;BME280;16252;49.816;7.964;2023-05-02T00:06:17;100147.09;;;14.45;51.45
29215;BME280;16252;49.816;7.964;2023-05-02T00:08:43;100153.78;;;14.41;51.48
29215;BME280;16252;49.816;7.964;2023-05-02T00:11:08;100176.59;;;14.46;51.65
29215;BME280;16252;49.816;7.964;2023-05-02T00:13:33;100138.97;;;14.25;51.57
29215;BME280;16252;49.816;7.964;2023-05-02T00:15:58;100151.19;;;14.29;51.51
29215;BME280;16252;49.816;7.964;2023-05-02T00:18:24;100139.66;;;14.18;51.56
29215;BME280;16252;49.816;7.964;2023-05-02T00:20:49;100152.59;;;14.24;51.71
29215;BME280;16252;49.816;7.964;2023-05-02T00:23:15;100136.69;;;14.11;51.76
29215;BME280;16252;49.816;7.964;2023-05-02T00:25:44;100168.75;;;14.34;52.06
29215;BME280;16252;49.816;7.964;2023-05-02T00:28:10;100135.97;;;14.09;51.59
29215;BME280;16252;49.816;7.964;2023-05-02T00:30:35;100166.03;;;14.24;51.78
29215;BME280;16252;49.816;7.964;2023-05-02T00:33:00;100170.13;;;14.28;51.87
29215;BME280;16252;49.816;7.964;2023-05-02T00:35:26;100161.63;;;14.23;51.70
29215;BME280;16252;49.816;7.964;2023-05-02T00:37:51;100164.91;;;14.26;51.74
29215;BME280;16252;49.816;7.964;2023-05-02T00:40:16;100165.47;;;14.30;51.70
29215;BME280;16252;49.816;7.964;2023-05-02T00:42:42;100178.69;;;14.33;51.60
29215;BME280;16252;49.816;7.964;2023-05-02T00:45:07;100172.81;;;14.28;51.60
29215;BME280;16252;49.816;7.964;2023-05-02T00:47:32;100139.50;;;14.09;51.81
29215;BME280;16252;49.816;7.964;2023-05-02T00:49:58;100139.91;;;14.05;51.83
29215;BME280;16252;49.816;7.964;2023-05-02T00:52:25;100146.28;;;14.04;51.94
29215;BME280;16252;49.816;7.964;2023-05-02T00:54:50;100160.19;;;14.09;51.92
29215;BME280;16252;49.816;7.964;2023-05-02T00:57:16;100146.97;;;13.96;51.85
29215;BME280;16252;49.816;7.964;2023-05-02T00:59:41;100160.13;;;13.99;51.99
29215;BME280;16252;49.816;7.964;2023-05-02T01:02:29;100181.88;;;14.17;51.91
29215;BME280;16252;49.816;7.964;2023-05-02T01:05:01;100179.69;;;14.01;51.97
29215;BME280;16252;49.816;7.964;2023-05-02T01:07:59;100176.16;;;14.01;52.17
29215;BME280;16252;49.816;7.964;2023-05-02T01:13:06;100159.72;;;13.73;52.30
29215;BME280;16252;49.816;7.964;2023-05-02T01:15:34;100169.75;;;13.71;52.20
29215;BME280;16252;49.816;7.964;2023-05-02T01:18:02;100171.72;;;13.69;52.14
29215;BME280;16252;49.816;7.964;2023-05-02T01:20:32;100182.47;;;13.69;52.60
29215;BME280;16252;49.816;7.964;2023-05-02T01:23:05;100189.97;;;13.65;52.62
29215;BME280;16252;49.816;7.964;2023-05-02T01:25:55;100137.00;;;13.35;52.14
29215;BME280;16252;49.816;7.964;2023-05-02T01:31:12;100210.22;;;13.70;52.41
29215;BME280;16252;49.816;7.964;2023-05-02T01:33:40;100206.56;;;13.71;52.71
29215;BME280;16252;49.816;7.964;2023-05-02T01:36:07;100197.19;;;13.65;52.63
29215;BME280;16252;49.816;7.964;2023-05-02T01:38:33;100194.06;;;13.60;52.73
29215;BME280;16252;49.816;7.964;2023-05-02T01:41:00;100197.44;;;13.62;52.97
29215;BME280;16252;49.816;7.964;2023-05-02T01:43:29;100217.44;;;13.90;51.00
29215;BME280;16252;49.816;7.964;2023-05-02T01:45:57;100135.59;;;13.20;52.24
29215;BME280;16252;49.816;7.964;2023-05-02T01:48:24;100218.09;;;13.61;52.40
29215;BME280;16252;49.816;7.964;2023-05-02T01:50:53;100220.28;;;13.68;52.72
29215;BME280;16252;49.816;7.964;2023-05-02T01:53:19;100219.09;;;13.60;52.69
29215;BME280;16252;49.816;7.964;2023-05-02T01:55:47;100215.09;;;13.55;53.03
29215;BME280;16252;49.816;7.964;2023-05-02T01:58:14;100205.00;;;13.47;52.85
29215;BME280;16252;49.816;7.964;2023-05-02T02:00:41;100224.00;;;13.55;52.79
29215;BME280;16252;49.816;7.964;2023-05-02T02:03:09;100210.97;;;13.51;52.73
29215;BME280;16252;49.816;7.964;2023-05-02T02:05:36;100222.72;;;13.50;52.93
29215;BME280;16252;49.816;7.964;2023-05-02T02:08:01;100209.91;;;13.42;52.90
29215;BME280;16252;49.816;7.964;2023-05-02T02:10:29;100228.53;;;13.55;52.97
29215;BME280;16252;49.816;7.964;2023-05-02T02:13:10;100231.69;;;13.60;52.90
29215;BME280;16252;49.816;7.964;2023-05-02T02:15:38;100237.00;;;13.50;52.90
29215;BME280;16252;49.816;7.964;2023-05-02T02:18:11;100247.09;;;13.58;53.01
29215;BME280;16252;49.816;7.964;2023-05-02T02:20:40;100248.06;;;13.57;53.37
29215;BME280;16252;49.816;7.964;2023-05-02T02:23:07;100246.28;;;13.46;52.96
29215;BME280;16252;49.816;7.964;2023-05-02T02:25:34;100251.81;;;13.44;53.18
29215;BME280;16252;49.816;7.964;2023-05-02T02:28:00;100265.56;;;13.51;52.85
29215;BME280;16252;49.816;7.964;2023-05-02T02:30:25;100256.47;;;13.42;53.13
29215;BME280;16252;49.816;7.964;2023-05-02T02:32:51;100249.34;;;13.41;53.20
29215;BME280;16252;49.816;7.964;2023-05-02T02:35:16;100231.47;;;13.31;52.97
29215;BME280;16252;49.816;7.964;2023-05-02T02:37:49;100248.97;;;13.46;53.42
29215;BME280;16252;49.816;7.964;2023-05-02T02:40:26;100244.72;;;13.43;53.46
29215;BME280;16252;49.816;7.964;2023-05-02T02:43:05;100266.56;;;13.50;53.23
29215;BME280;16252;49.816;7.964;2023-05-02T02:48:42;100262.78;;;13.41;53.31
29215;BME280;16252;49.816;7.964;2023-05-02T02:51:29;100270.75;;;13.43;52.98
29215;BME280;16252;49.816;7.964;2023-05-02T02:56:46;100280.44;;;13.34;53.92
29215;BME280;16252;49.816;7.964;2023-05-02T02:59:31;100287.72;;;13.43;53.50
29215;BME280;16252;49.816;7.964;2023-05-02T03:02:06;100282.25;;;13.34;53.98
29215;BME280;16252;49.816;7.964;2023-05-02T03:04:34;100290.94;;;13.37;53.96
29215;BME280;16252;49.816;7.964;2023-05-02T03:07:00;100268.22;;;13.19;53.64
29215;BME280;16252;49.816;7.964;2023-05-02T03:09:26;100291.41;;;13.31;53.70
29215;BME280;16252;49.816;7.964;2023-05-02T03:11:55;100289.13;;;13.27;53.92
29215;BME280;16252;49.816;7.964;2023-05-02T03:14:20;100268.75;;;13.13;53.75
29215;BME280;16252;49.816;7.964;2023-05-02T03:16:46;100278.66;;;13.12;53.81
29215;BME280;16252;49.816;7.964;2023-05-02T03:19:11;100295.44;;;13.26;54.08
29215;BME280;16252;49.816;7.964;2023-05-02T03:21:37;100307.91;;;13.27;53.92
29215;BME280;16252;49.816;7.964;2023-05-02T03:24:03;100260.97;;;12.98;53.84
29215;BME280;16252;49.816;7.964;2023-05-02T03:26:29;100201.63;;;12.58;54.07
29215;BME280;16252;49.816;7.964;2023-05-02T03:28:55;100283.44;;;12.97;54.10
29215;BME280;16252;49.816;7.964;2023-05-02T03:31:21;100152.06;;;12.19;53.91
29215;BME280;16252;49.816;7.964;2023-05-02T03:33:47;100302.72;;;13.02;54.16
29215;BME280;16252;49.816;7.964;2023-05-02T03:36:13;100221.66;;;12.54;54.27
29215;BME280;16252;49.816;7.964;2023-05-02T03:38:39;100297.84;;;12.96;54.34
29215;BME280;16252;49.816;7.964;2023-05-02T03:41:04;100328.38;;;13.07;54.21
29215;BME280;16252;49.816;7.964;2023-05-02T03:43:30;100333.59;;;13.08;54.43
29215;BME280;16252;49.816;7.964;2023-05-02T03:45:55;100309.09;;;12.90;54.25
29215;BME280;16252;49.816;7.964;2023-05-02T03:48:21;100335.91;;;13.13;54.47
29215;BME280;16252;49.816;7.964;2023-05-02T03:50:46;100333.94;;;13.15;54.49
29215;BME280;16252;49.816;7.964;2023-05-02T03:53:12;100336.50;;;13.16;54.31
29215;BME280;16252;49.816;7.964;2023-05-02T03:55:40;100335.28;;;13.20;54.68
29215;BME280;16252;49.816;7.964;2023-05-02T03:58:06;100323.22;;;13.04;54.09
29215;BME280;16252;49.816;7.964;2023-05-02T04:00:32;100331.63;;;13.10;54.07
29215;BME280;16252;49.816;7.964;2023-05-02T04:02:59;100321.41;;;13.04;54.56
29215;BME280;16252;49.816;7.964;2023-05-02T04:05:25;100316.53;;;12.98;54.18
29215;BME280;16252;49.816;7.964;2023-05-02T04:07:50;100341.16;;;13.14;54.43
29215;BME280;16252;49.816;7.964;2023-05-02T04:10:15;100306.75;;;12.86;54.09
29215;BME280;16252;49.816;7.964;2023-05-02T04:12:42;100341.78;;;13.07;54.37
29215;BME280;16252;49.816;7.964;2023-05-02T04:15:08;100363.25;;;13.18;54.20
29215;BME280;16252;49.816;7.964;2023-05-02T04:17:34;100316.28;;;12.90;54.06
29215;BME280;16252;49.816;7.964;2023-05-02T04:19:59;100341.31;;;13.01;54.34
29215;BME280;16252;49.816;7.964;2023-05-02T04:22:25;100369.63;;;13.17;54.36
29215;BME280;16252;49.816;7.964;2023-05-02T04:24:50;100358.25;;;13.13;54.67
29215;BME280;16252;49.816;7.964;2023-05-02T04:27:15;100361.66;;;13.15;54.51
29215;BME280;16252;49.816;7.964;2023-05-02T04:29:40;100369.38;;;13.20;54.75
29215;BME280;16252;49.816;7.964;2023-05-02T04:32:06;100380.09;;;13.31;54.91
29215;BME280;16252;49.816;7.964;2023-05-02T04:34:31;100347.75;;;13.10;54.68
29215;BME280;16252;49.816;7.964;2023-05-02T04:36:57;100283.47;;;12.75;54.67
29215;BME280;16252;49.816;7.964;2023-05-02T04:39:22;100360.06;;;13.24;54.82
29215;BME280;16252;49.816;7.964;2023-05-02T04:41:47;100381.19;;;13.40;54.92
29215;BME280;16252;49.816;7.964;2023-05-02T04:44:12;100337.59;;;13.14;55.17
29215;BME280;16252;49.816;7.964;2023-05-02T04:46:38;100364.22;;;13.39;54.89
29215;BME280;16252;49.816;7.964;2023-05-02T04:49:03;100413.88;;;13.68;54.83
29215;BME280;16252;49.816;7.964;2023-05-02T04:51:28;100386.28;;;13.54;54.87
29215;BME280;16252;49.816;7.964;2023-05-02T04:53:55;100375.28;;;13.57;54.74
29215;BME280;16252;49.816;7.964;2023-05-02T04:56:21;100368.72;;;13.50;54.87
29215;BME280;16252;49.816;7.964;2023-05-02T04:58:46;100427.25;;;13.90;55.04
29215;BME280;16252;49.816;7.964;2023-05-02T05:01:11;100396.59;;;13.81;54.83
29215;BME280;16252;49.816;7.964;2023-05-02T05:03:37;100419.78;;;13.94;54.99
29215;BME280;16252;49.816;7.964;2023-05-02T05:06:02;100416.34;;;13.92;54.94
29215;BME280;16252;49.816;7.964;2023-05-02T05:08:27;100387.94;;;13.78;54.85
29215;BME280;16252;49.816;7.964;2023-05-02T05:10:53;100436.47;;;14.08;55.17
29215;BME280;16252;49.816;7.964;2023-05-02T05:13:18;100401.31;;;13.89;55.16
29215;BME280;16252;49.816;7.964;2023-05-02T05:15:43;100429.78;;;14.03;55.02
29215;BME280;16252;49.816;7.964;2023-05-02T05:18:08;100410.22;;;13.90;54.98
29215;BME280;16252;49.816;7.964;2023-05-02T05:20:34;100423.19;;;13.96;54.78
29215;BME280;16252;49.816;7.964;2023-05-02T05:22:59;100430.16;;;13.98;54.89
29215;BME280;16252;49.816;7.964;2023-05-02T05:25:25;100453.81;;;14.16;54.81
29215;BME280;16252;49.816;7.964;2023-05-02T05:27:51;100426.63;;;13.98;55.17
29215;BME280;16252;49.816;7.964;2023-05-02T05:30:17;100469.53;;;14.20;55.05
29215;BME280;16252;49.816;7.964;2023-05-02T05:32:42;100435.72;;;14.06;55.03
29215;BME280;16252;49.816;7.964;2023-05-02T05:35:08;100444.16;;;14.13;55.38
29215;BME280;16252;49.816;7.964;2023-05-02T05:37:33;100476.72;;;14.31;55.34
29215;BME280;16252;49.816;7.964;2023-05-02T05:40:00;100464.13;;;14.31;55.54
29215;BME280;16252;49.816;7.964;2023-05-02T05:42:26;100362.63;;;13.69;55.26
29215;BME280;16252;49.816;7.964;2023-05-02T05:44:51;100417.00;;;14.05;55.61
29215;BME280;16252;49.816;7.964;2023-05-02T05:47:19;100417.25;;;14.13;55.60
29215;BME280;16252;49.816;7.964;2023-05-02T05:49:52;100470.16;;;14.45;55.84
29215;BME280;16252;49.816;7.964;2023-05-02T05:52:17;100316.78;;;13.50;55.51
29215;BME280;16252;49.816;7.964;2023-05-02T05:54:42;100426.09;;;14.25;55.77
29215;BME280;16252;49.816;7.964;2023-05-02T05:57:08;100463.53;;;14.49;55.66
29215;BME280;16252;49.816;7.964;2023-05-02T05:59:36;100456.94;;;14.53;56.16
29215;BME280;16252;49.816;7.964;2023-05-02T06:02:01;100430.59;;;14.36;55.74
29215;BME280;16252;49.816;7.964;2023-05-02T06:04:28;100473.75;;;14.66;56.09
29215;BME280;16252;49.816;7.964;2023-05-02T06:06:53;100480.06;;;14.77;55.59
29215;BME280;16252;49.816;7.964;2023-05-02T06:09:19;100491.59;;;14.88;55.78
29215;BME280;16252;49.816;7.964;2023-05-02T06:11:44;100450.94;;;14.70;55.35
29215;BME280;16252;49.816;7.964;2023-05-02T06:14:09;100493.38;;;14.99;55.40
29215;BME280;16252;49.816;7.964;2023-05-02T06:16:35;100465.38;;;14.90;55.07
29215;BME280;16252;49.816;7.964;2023-05-02T06:19:00;100469.13;;;14.99;55.04
29215;BME280;16252;49.816;7.964;2023-05-02T06:21:25;100451.63;;;14.93;55.03
29215;BME280;16252;49.816;7.964;2023-05-02T06:23:51;100464.38;;;15.12;54.98
29215;BME280;16252;49.816;7.964;2023-05-02T06:26:16;100516.41;;;15.44;54.71
29215;BME280;16252;49.816;7.964;2023-05-02T06:28:42;100495.41;;;15.37;54.65
29215;BME280;16252;49.816;7.964;2023-05-02T06:31:07;100485.00;;;15.33;54.33
29215;BME280;16252;49.816;7.964;2023-05-02T06:33:33;100529.38;;;15.59;54.46
29215;BME280;16252;49.816;7.964;2023-05-02T06:35:58;100536.22;;;15.64;54.24
29215;BME280;16252;49.816;7.964;2023-05-02T06:38:24;100529.56;;;15.68;54.37
29215;BME280;16252;49.816;7.964;2023-05-02T06:40:49;100514.53;;;15.65;54.26
29215;BME280;16252;49.816;7.964;2023-05-02T06:43:15;100523.31;;;15.67;54.06
29215;BME280;16252;49.816;7.964;2023-05-02T06:45:41;100539.88;;;15.84;54.11
29215;BME280;16252;49.816;7.964;2023-05-02T06:48:07;100509.69;;;15.69;53.98
29215;BME280;16252;49.816;7.964;2023-05-02T06:50:33;100534.34;;;15.85;53.98
29215;BME280;16252;49.816;7.964;2023-05-02T06:52:59;100508.91;;;15.78;53.72
29215;BME280;16252;49.816;7.964;2023-05-02T06:55:24;100420.63;;;15.39;53.96
29215;BME280;16252;49.816;7.964;2023-05-02T06:57:50;100552.72;;;16.30;54.01
29215;BME280;16252;49.816;7.964;2023-05-02T07:00:16;100517.19;;;16.25;53.91
29215;BME280;16252;49.816;7.964;2023-05-02T07:02:44;100504.00;;;16.32;53.56
29215;BME280;16252;49.816;7.964;2023-05-02T07:05:09;100486.53;;;16.26;53.19
29215;BME280;16252;49.816;7.964;2023-05-02T07:07:34;100555.31;;;16.80;52.87
29215;BME280;16252;49.816;7.964;2023-05-02T07:10:00;100545.94;;;16.84;52.79
29215;BME280;16252;49.816;7.964;2023-05-02T07:12:25;100544.09;;;16.85;52.39
29215;BME280;16252;49.816;7.964;2023-05-02T07:14:51;100543.06;;;16.96;52.63
29215;BME280;16252;49.816;7.964;2023-05-02T07:17:16;100576.31;;;17.16;52.42
29215;BME280;16252;49.816;7.964;2023-05-02T07:19:41;100555.72;;;17.05;52.16
29215;BME280;16252;49.816;7.964;2023-05-02T07:22:06;100541.91;;;17.08;52.23
29215;BME280;16252;49.816;7.964;2023-05-02T07:24:32;100576.59;;;17.32;51.78
29215;BME280;16252;49.816;7.964;2023-05-02T07:26:57;100561.78;;;17.26;51.56
29215;BME280;16252;49.816;7.964;2023-05-02T07:29:22;100556.22;;;17.28;51.19
29215;BME280;16252;49.816;7.964;2023-05-02T07:31:48;100560.59;;;17.39;50.98
29215;BME280;16252;49.816;7.964;2023-05-02T07:34:13;100584.38;;;17.45;51.33
29215;BME280;16252;49.816;7.964;2023-05-02T07:36:39;100573.41;;;17.37;51.48
29215;BME280;16252;49.816;7.964;2023-05-02T07:39:04;100549.56;;;17.22;50.32
29215;BME280;16252;49.816;7.964;2023-05-02T07:41:29;100583.81;;;17.41;50.43
29215;BME280;16252;49.816;7.964;2023-05-02T07:43:55;100551.84;;;17.17;50.27
29215;BME280;16252;49.816;7.964;2023-05-02T07:46:22;100535.94;;;17.04;50.27
29215;BME280;16252;49.816;7.964;2023-05-02T07:48:47;100578.72;;;17.28;50.29
29215;BME280;16252;49.816;7.964;2023-05-02T07:51:12;100613.56;;;17.41;50.11
29215;BME280;16252;49.816;7.964;2023-05-02T07:53:37;100570.78;;;17.17;49.92
29215;BME280;16252;49.816;7.964;2023-05-02T07:56:03;100611.44;;;17.35;49.65
29215;BME280;16252;49.816;7.964;2023-05-02T07:58:31;100557.28;;;16.98;49.89
29215;BME280;16252;49.816;7.964;2023-05-02T08:00:57;100602.38;;;17.17;49.89
29215;BME280;16252;49.816;7.964;2023-05-02T08:03:22;100593.28;;;17.08;49.81
29215;BME280;16252;49.816;7.964;2023-05-02T08:05:47;100619.47;;;17.17;49.61
29215;BME280;16252;49.816;7.964;2023-05-02T08:08:12;100627.56;;;17.27;49.99
29215;BME280;16252;49.816;7.964;2023-05-02T08:10:38;100632.81;;;17.28;49.74
29215;BME280;16252;49.816;7.964;2023-05-02T08:13:03;100600.13;;;17.12;49.87
29215;BME280;16252;49.816;7.964;2023-05-02T08:15:28;100621.56;;;17.23;50.08
29215;BME280;16252;49.816;7.964;2023-05-02T08:17:54;100615.31;;;17.23;49.73
29215;BME280;16252;49.816;7.964;2023-05-02T08:20:20;100493.75;;;16.45;49.69
29215;BME280;16252;49.816;7.964;2023-05-02T08:22:47;100599.81;;;17.15;49.44
29215;BME280;16252;49.816;7.964;2023-05-02T08:25:12;100599.94;;;17.14;49.32
29215;BME280;16252;49.816;7.964;2023-05-02T08:27:37;100576.50;;;16.95;49.48
29215;BME280;16252;49.816;7.964;2023-05-02T08:30:03;100624.44;;;17.22;49.35
29215;BME280;16252;49.816;7.964;2023-05-02T08:32:28;100642.63;;;17.29;49.67
29215;BME280;16252;49.816;7.964;2023-05-02T08:34:54;100608.50;;;17.09;49.32
29215;BME280;16252;49.816;7.964;2023-05-02T08:37:21;100614.91;;;17.08;49.49
29215;BME280;16252;49.816;7.964;2023-05-02T08:39:46;100601.41;;;16.88;49.61
29215;BME280;16252;49.816;7.964;2023-05-02T08:42:11;100662.56;;;17.28;49.34
29215;BME280;16252;49.816;7.964;2023-05-02T08:44:37;100648.91;;;17.20;49.19
29215;BME280;16252;49.816;7.964;2023-05-02T08:47:03;100626.44;;;17.00;49.23
29215;BME280;16252;49.816;7.964;2023-05-02T08:49:31;100672.81;;;17.25;49.44
29215;BME280;16252;49.816;7.964;2023-05-02T08:51:58;100663.28;;;17.21;49.70
29215;BME280;16252;49.816;7.964;2023-05-02T08:54:24;100642.66;;;17.10;49.76
29215;BME280;16252;49.816;7.964;2023-05-02T08:56:53;100637.81;;;17.04;49.94
29215;BME280;16252;49.816;7.964;2023-05-02T08:59:18;100668.69;;;17.21;50.07
29215;BME280;16252;49.816;7.964;2023-05-02T09:01:48;100628.72;;;16.95;50.12
29215;BME280;16252;49.816;7.964;2023-05-02T09:04:13;100668.84;;;17.19;50.10
29215;BME280;16252;49.816;7.964;2023-05-02T09:06:39;100638.94;;;17.01;49.99
29215;BME280;16252;49.816;7.964;2023-05-02T09:09:04;100673.53;;;17.27;50.60
29215;BME280;16252;49.816;7.964;2023-05-02T09:11:29;100651.28;;;17.43;51.41
29215;BME280;16252;49.816;7.964;2023-05-02T09:13:55;100605.94;;;17.64;52.26
29215;BME280;16252;49.816;7.964;2023-05-02T09:16:24;100620.88;;;18.33;50.96
29215;BME280;16252;49.816;7.964;2023-05-02T09:18:53;100698.47;;;19.16;49.60
29215;BME280;16252;49.816;7.964;2023-05-02T09:21:24;100700.16;;;19.53;48.82
29215;BME280;16252;49.816;7.964;2023-05-02T09:23:56;100679.19;;;19.63;48.00
29215;BME280;16252;49.816;7.964;2023-05-02T09:26:28;100671.13;;;19.71;47.86
29215;BME280;16252;49.816;7.964;2023-05-02T09:28:59;100686.13;;;19.83;47.51
29215;BME280;16252;49.816;7.964;2023-05-02T09:31:28;100696.94;;;20.01;47.43
29215;BME280;16252;49.816;7.964;2023-05-02T09:34:12;100684.91;;;20.12;47.20
29215;BME280;16252;49.816;7.964;2023-05-02T09:36:40;100674.72;;;20.06;46.64
29215;BME280;16252;49.816;7.964;2023-05-02T09:39:10;100630.44;;;19.79;46.07
29215;BME280;16252;49.816;7.964;2023-05-02T09:41:40;100692.22;;;20.11;45.76
29215;BME280;16252;49.816;7.964;2023-05-02T09:44:10;100698.56;;;19.94;46.20
29215;BME280;16252;49.816;7.964;2023-05-02T09:46:55;100693.16;;;19.94;46.06
29215;BME280;16252;49.816;7.964;2023-05-02T09:49:43;100688.38;;;19.88;46.57
29215;BME280;16252;49.816;7.964;2023-05-02T09:52:11;100700.88;;;20.15;47.53
29215;BME280;16252;49.816;7.964;2023-05-02T09:54:36;100714.53;;;20.66;47.66
29215;BME280;16252;49.816;7.964;2023-05-02T09:57:02;100711.09;;;21.39;48.09
29215;BME280;16252;49.816;7.964;2023-05-02T09:59:27;100705.38;;;22.22;47.64
29215;BME280;16252;49.816;7.964;2023-05-02T10:01:55;100704.53;;;23.15;46.85
29215;BME280;16252;49.816;7.964;2023-05-02T10:04:21;100695.13;;;23.79;45.17
29215;BME280;16252;49.816;7.964;2023-05-02T10:06:47;100701.94;;;24.28;43.23
29215;BME280;16252;49.816;7.964;2023-05-02T10:09:15;100701.19;;;24.49;41.86
29215;BME280;16252;49.816;7.964;2023-05-02T10:11:44;100709.72;;;24.75;40.88
29215;BME280;16252;49.816;7.964;2023-05-02T10:14:10;100710.78;;;24.96;44.30
29215;BME280;16252;49.816;7.964;2023-05-02T10:16:46;100701.59;;;24.82;40.64
29215;BME280;16252;49.816;7.964;2023-05-02T10:19:19;100691.75;;;24.51;39.60
29215;BME280;16252;49.816;7.964;2023-05-02T10:21:47;100699.47;;;24.33;40.25
29215;BME280;16252;49.816;7.964;2023-05-02T10:24:14;100703.94;;;24.19;40.58
29215;BME280;16252;49.816;7.964;2023-05-02T10:26:40;100702.78;;;23.98;39.67
29215;BME280;16252;49.816;7.964;2023-05-02T10:29:06;100705.41;;;23.77;40.01
29215;BME280;16252;49.816;7.964;2023-05-02T10:31:33;100696.84;;;23.57;39.83
29215;BME280;16252;49.816;7.964;2023-05-02T10:33:59;100701.19;;;23.51;39.97
29215;BME280;16252;49.816;7.964;2023-05-02T10:36:26;100703.34;;;23.56;40.33
29215;BME280;16252;49.816;7.964;2023-05-02T10:38:53;100683.75;;;23.75;40.55
29215;BME280;16252;49.816;7.964;2023-05-02T10:41:21;100702.69;;;24.21;40.11
29215;BME280;16252;49.816;7.964;2023-05-02T10:43:48;100680.44;;;24.39;40.33
29215;BME280;16252;49.816;7.964;2023-05-02T10:49:04;100672.19;;;24.69;38.95
29215;BME280;16252;49.816;7.964;2023-05-02T10:51:31;100668.59;;;24.69;38.22
29215;BME280;16252;49.816;7.964;2023-05-02T10:57:06;100646.19;;;24.80;38.99
29215;BME280;16252;49.816;7.964;2023-05-02T10:59:34;100684.50;;;25.01;37.69
29215;BME280;16252;49.816;7.964;2023-05-02T11:01:59;100675.19;;;24.96;38.18
29215;BME280;16252;49.816;7.964;2023-05-02T11:05:01;100682.28;;;25.12;38.43
29215;BME280;16252;49.816;7.964;2023-05-02T11:07:27;100666.59;;;24.99;37.64
29215;BME280;16252;49.816;7.964;2023-05-02T11:09:52;100668.31;;;25.00;37.28
29215;BME280;16252;49.816;7.964;2023-05-02T11:15:28;100672.72;;;25.01;37.03
29215;BME280;16252;49.816;7.964;2023-05-02T11:18:04;100671.47;;;25.03;37.04
29215;BME280;16252;49.816;7.964;2023-05-02T11:20:33;100668.56;;;25.05;36.88
29215;BME280;16252;49.816;7.964;2023-05-02T11:25:41;100657.66;;;24.90;36.79
29215;BME280;16252;49.816;7.964;2023-05-02T11:30:58;100654.81;;;24.77;36.77
29215;BME280;16252;49.816;7.964;2023-05-02T11:33:25;100625.06;;;24.52;36.83
29215;BME280;16252;49.816;7.964;2023-05-02T11:35:50;100649.81;;;24.65;36.84
29215;BME280;16252;49.816;7.964;2023-05-02T11:38:17;100648.53;;;24.61;37.05
29215;BME280;16252;49.816;7.964;2023-05-02T11:43:18;100652.69;;;24.57;36.53
29215;BME280;16252;49.816;7.964;2023-05-02T11:45:44;100651.38;;;24.53;36.66
29215;BME280;16252;49.816;7.964;2023-05-02T11:48:15;100662.97;;;24.55;36.78
29215;BME280;16252;49.816;7.964;2023-05-02T11:50:46;100644.28;;;24.44;36.57
29215;BME280;16252;49.816;7.964;2023-05-02T11:53:16;100630.94;;;24.34;36.60
29215;BME280;16252;49.816;7.964;2023-05-02T11:55:47;100648.16;;;24.35;36.35
29215;BME280;16252;49.816;7.964;2023-05-02T11:58:14;100652.03;;;24.26;36.43
29215;BME280;16252;49.816;7.964;2023-05-02T12:00:40;100553.97;;;23.56;36.57
29215;BME280;16252;49.816;7.964;2023-05-02T12:03:06;100648.78;;;24.00;36.79
29215;BME280;16252;49.816;7.964;2023-05-02T12:05:31;100629.00;;;23.84;36.61
29215;BME280;16252;49.816;7.964;2023-05-02T12:07:57;100645.78;;;23.81;36.99
29215;BME280;16252;49.816;7.964;2023-05-02T12:10:22;100642.75;;;23.75;36.97
29215;BME280;16252;49.816;7.964;2023-05-02T12:12:48;100626.78;;;23.64;36.76
29215;BME280;16252;49.816;7.964;2023-05-02T12:15:14;100645.53;;;23.67;36.86
29215;BME280;16252;49.816;7.964;2023-05-02T12:17:41;100660.00;;;23.76;36.92
29215;BME280;16252;49.816;7.964;2023-05-02T12:20:08;100666.59;;;23.82;36.82
29215;BME280;16252;49.816;7.964;2023-05-02T12:22:34;100630.56;;;23.63;36.77
29215;BME280;16252;49.816;7.964;2023-05-02T12:25:00;100658.50;;;23.73;36.69
29215;BME280;16252;49.816;7.964;2023-05-02T12:27:27;100656.94;;;23.71;36.81
29215;BME280;16252;49.816;7.964;2023-05-02T12:29:53;100659.00;;;23.69;36.63
29215;BME280;16252;49.816;7.964;2023-05-02T12:32:28;100669.50;;;23.80;36.66
29215;BME280;16252;49.816;7.964;2023-05-02T12:34:54;100657.97;;;23.55;36.09
29215;BME280;16252;49.816;7.964;2023-05-02T12:37:24;100636.47;;;23.37;36.26
29215;BME280;16252;49.816;7.964;2023-05-02T12:39:51;100672.72;;;23.46;36.73
29215;BME280;16252;49.816;7.964;2023-05-02T12:42:19;100679.28;;;23.36;36.60
29215;BME280;16252;49.816;7.964;2023-05-02T12:44:47;100678.22;;;23.23;36.42
29215;BME280;16252;49.816;7.964;2023-05-02T12:47:15;100680.16;;;23.14;36.45
29215;BME280;16252;49.816;7.964;2023-05-02T12:52:13;100662.06;;;22.90;36.50
29215;BME280;16252;49.816;7.964;2023-05-02T12:54:39;100670.38;;;22.97;36.21
29215;BME280;16252;49.816;7.964;2023-05-02T12:57:04;100647.63;;;22.81;36.28
29215;BME280;16252;49.816;7.964;2023-05-02T12:59:30;100685.25;;;22.94;36.27
29215;BME280;16252;49.816;7.964;2023-05-02T13:01:56;100665.56;;;22.76;36.64
29215;BME280;16252;49.816;7.964;2023-05-02T13:04:35;100676.63;;;22.82;36.15
29215;BME280;16252;49.816;7.964;2023-05-02T13:07:01;100671.22;;;22.74;36.60
29215;BME280;16252;49.816;7.964;2023-05-02T13:09:26;100662.22;;;22.65;36.37
29215;BME280;16252;49.816;7.964;2023-05-02T13:11:51;100645.44;;;22.54;36.67
29215;BME280;16252;49.816;7.964;2023-05-02T13:14:18;100676.38;;;22.69;36.33
29215;BME280;16252;49.816;7.964;2023-05-02T13:16:43;100634.75;;;22.44;36.41
29215;BME280;16252;49.816;7.964;2023-05-02T13:19:08;100653.09;;;22.50;36.58
29215;BME280;16252;49.816;7.964;2023-05-02T13:21:34;100661.81;;;22.54;36.55